Time;durP1;ratioP1;P1;durP2;ratioP2;P2;SDS_P1;SDS_P2;PMS_P1;PMS_P2;Temp;Humidity;BMP_temperature;BMP_pressure;BME280_temperature;BME280_humidity;BME280_pressure;Samples;Min_cycle;Max_cycle;Signal;HPM_P1;HPM_P2
2022/10/27 00:01:33;;;;;;;11.60;4.28;;;;;;;13.49;100.00;101884.19;5051591;28;20056;-54
2022/10/27 00:03:59;;;;;;;10.50;4.45;;;;;;;13.49;100.00;101891.25;5051605;28;20464;-58
2022/10/27 00:06:24;;;;;;;7.70;4.15;;;;;;;13.15;100.00;101846.38;5051023;28;20028;-53
2022/10/27 00:08:50;;;;;;;9.57;4.68;;;;;;;13.08;100.00;101835.97;5051464;28;20462;-52
2022/10/27 00:11:16;;;;;;;7.93;5.10;;;;;;;13.35;100.00;101893.41;5051857;28;20041;-55
2022/10/27 00:13:41;;;;;;;11.30;5.32;;;;;;;13.34;100.00;101889.91;5051831;28;20033;-55
2022/10/27 00:16:15;;;;;;;8.95;5.38;;;;;;;13.03;100.00;101822.88;5051744;28;20076;-51
2022/10/27 00:18:44;;;;;;;11.43;4.85;;;;;;;13.19;100.00;101863.03;5052930;28;20508;-55
2022/10/27 00:21:13;;;;;;;9.27;4.57;;;;;;;13.01;100.00;101826.47;5070586;28;20431;-51
2022/10/27 00:23:39;;;;;;;10.93;4.40;;;;;;;13.27;100.00;101884.81;5052977;28;20029;-56
2022/10/27 00:26:06;;;;;;;10.30;5.47;;;;;;;13.30;100.00;101893.56;5044167;28;20175;-57
2022/10/27 00:28:32;;;;;;;8.82;4.70;;;;;;;13.34;100.00;101881.97;5054175;28;20037;-57
2022/10/27 00:31:06;;;;;;;9.88;5.13;;;;;;;13.54;100.00;101910.53;5054732;28;20455;-53
2022/10/27 00:33:32;;;;;;;10.18;5.05;;;;;;;13.62;100.00;101902.38;5035946;28;20055;-54
2022/10/27 00:36:06;;;;;;;8.32;4.97;;;;;;;13.28;100.00;101842.47;5049560;28;20107;-52
2022/10/27 00:38:31;;;;;;;9.35;5.60;;;;;;;13.60;100.00;101910.34;5056066;28;20037;-53
2022/10/27 00:40:56;;;;;;;11.88;5.35;;;;;;;13.34;100.00;101867.88;5051370;28;20064;-56
2022/10/27 00:43:27;;;;;;;8.35;4.75;;;;;;;13.31;100.00;101870.63;5060932;28;20038;-53
2022/10/27 00:45:55;;;;;;;11.98;5.80;;;;;;;13.40;100.00;101908.25;5046450;28;20026;-56
2022/10/27 00:48:22;;;;;;;9.88;5.43;;;;;;;13.40;100.00;101913.53;5044369;28;20039;-55
2022/10/27 00:50:47;;;;;;;8.27;5.32;;;;;;;13.42;100.00;101918.81;5039367;28;20038;-56
2022/10/27 00:53:13;;;;;;;10.15;5.97;;;;;;;13.10;100.00;101860.63;5037957;28;20037;-55
2022/10/27 00:55:39;;;;;;;12.68;5.68;;;;;;;13.38;100.00;101923.28;5038130;28;20084;-54
2022/10/27 00:58:07;;;;;;;15.40;6.13;;;;;;;13.35;100.00;101914.56;5068007;28;20374;-54
2022/10/27 01:00:35;;;;;;;10.00;6.45;;;;;;;13.30;100.00;101904.13;5050026;28;20404;-58
2022/10/27 01:03:00;;;;;;;14.85;6.30;;;;;;;13.28;100.00;101913.00;5045983;28;20218;-55
2022/10/27 01:05:27;;;;;;;10.60;6.72;;;;;;;13.25;100.00;101908.66;5037961;28;20541;-54
2022/10/27 01:07:58;;;;;;;14.15;6.90;;;;;;;13.21;100.00;101916.72;5064713;28;20036;-54
2022/10/27 01:10:25;;;;;;;13.05;7.28;;;;;;;13.11;100.00;101908.16;5070016;28;20033;-54
2022/10/27 01:12:51;;;;;;;13.25;6.50;;;;;;;13.15;100.00;101920.38;5053457;28;20483;-55
2022/10/27 01:15:17;;;;;;;15.90;8.05;;;;;;;13.14;100.00;101910.72;5054524;28;20025;-55
2022/10/27 01:17:57;;;;;;;11.57;6.90;;;;;;;13.15;100.00;101919.50;5054088;28;20048;-53
2022/10/27 01:21:04;;;;;;;13.50;7.37;;;;;;;13.15;100.00;101916.88;5040362;28;20033;-55
2022/10/27 01:24:11;;;;;;;12.77;7.50;;;;;;;13.06;100.00;101896.78;5049891;28;20033;-51
2022/10/27 01:26:59;;;;;;;14.40;7.93;;;;;;;13.04;100.00;101922.41;5033814;28;20044;-59
2022/10/27 01:29:45;;;;;;;13.10;7.88;;;;;;;12.98;100.00;101912.88;5032464;28;20127;-54
2022/10/27 01:32:26;;;;;;;15.52;7.85;;;;;;;12.97;100.00;101915.53;5034047;28;20025;-56
2022/10/27 01:34:59;;;;;;;15.20;8.05;;;;;;;12.86;100.00;101910.53;5034079;28;20044;-55
2022/10/27 01:37:29;;;;;;;16.40;8.88;;;;;;;12.77;100.00;101894.91;5049288;28;20681;-57
2022/10/27 01:40:34;;;;;;;16.00;7.82;;;;;;;12.89;100.00;101917.50;5049215;28;20041;-55
2022/10/27 01:43:03;;;;;;;14.50;8.55;;;;;;;12.73;100.00;101903.78;5031352;28;20405;-55
2022/10/27 01:45:31;;;;;;;13.77;8.85;;;;;;;12.75;100.00;101903.78;5048939;28;20179;-56
2022/10/27 01:47:57;;;;;;;14.85;8.68;;;;;;;12.58;100.00;101890.09;5038466;28;20166;-57
2022/10/27 01:50:32;;;;;;;14.40;9.07;;;;;;;12.65;100.00;101913.69;5030372;28;20128;-53
2022/10/27 01:52:58;;;;;;;17.30;9.85;;;;;;;12.65;100.00;101918.97;5032927;28;20495;-54
2022/10/27 01:55:23;;;;;;;17.13;8.88;;;;;;;12.63;100.00;101915.50;5041339;28;20608;-57
2022/10/27 01:58:11;;;;;;;14.98;9.57;;;;;;;12.62;100.00;101905.81;5033610;28;20033;-54
2022/10/27 02:00:47;;;;;;;18.13;10.40;;;;;;;12.59;100.00;101897.97;5036957;28;20048;-56
2022/10/27 02:03:16;;;;;;;13.43;10.32;;;;;;;12.27;100.00;101845.06;5062064;28;20029;-57
2022/10/27 02:05:52;;;;;;;20.33;10.10;;;;;;;12.31;100.00;101841.44;5036878;28;20041;-54
2022/10/27 02:08:34;;;;;;;18.70;10.57;;;;;;;12.40;100.00;101870.28;5034790;28;20396;-53
2022/10/27 02:11:04;;;;;;;17.83;10.90;;;;;;;12.54;100.00;101899.88;5050420;28;20025;-52
2022/10/27 02:13:31;;;;;;;18.95;11.20;;;;;;;12.51;100.00;101910.50;5041067;28;20029;-56
2022/10/27 02:16:17;;;;;;;16.73;10.90;;;;;;;12.46;100.00;101895.69;5049903;28;20056;-55
2022/10/27 02:18:47;;;;;;;16.90;10.13;;;;;;;12.45;100.00;101891.28;5052947;28;20108;-52
2022/10/27 02:21:14;;;;;;;14.27;10.95;;;;;;;12.14;100.00;101844.47;5051488;28;20033;-51
2022/10/27 02:23:40;;;;;;;20.73;11.48;;;;;;;12.16;100.00;101855.00;5052045;28;20036;-52
2022/10/27 02:26:42;;;;;;;13.85;11.10;;;;;;;12.37;100.00;101894.13;5040473;28;20515;-57
2022/10/27 02:29:13;;;;;;;16.77;12.05;;;;;;;12.35;100.00;101898.53;5032810;28;20376;-54
2022/10/27 02:31:42;;;;;;;16.70;11.20;;;;;;;12.34;100.00;101892.41;5059677;28;20033;-53
2022/10/27 02:34:08;;;;;;;19.77;11.90;;;;;;;12.08;100.00;101841.13;5035209;28;20036;-54
2022/10/27 02:36:34;;;;;;;19.05;12.57;;;;;;;12.30;100.00;101874.03;5040119;28;20061;-54
2022/10/27 02:39:00;;;;;;;18.90;11.57;;;;;;;12.31;100.00;101888.97;5047908;28;20033;-55
2022/10/27 02:41:25;;;;;;;17.77;11.90;;;;;;;12.21;100.00;101875.09;5046072;28;20040;-57
2022/10/27 02:43:50;;;;;;;17.20;11.88;;;;;;;12.17;100.00;101875.22;5036872;28;20457;-56
2022/10/27 02:46:16;;;;;;;18.85;11.30;;;;;;;11.81;100.00;101817.09;5050437;28;20083;-54
2022/10/27 02:48:41;;;;;;;16.33;12.55;;;;;;;12.12;100.00;101882.34;5038913;28;20042;-54
2022/10/27 02:51:06;;;;;;;12.70;10.80;;;;;;;12.08;100.00;101883.34;5032425;28;20037;-52
2022/10/27 02:53:32;;;;;;;19.02;10.88;;;;;;;12.05;100.00;101879.00;5047793;28;20040;-56
2022/10/27 02:55:57;;;;;;;24.27;12.55;;;;;;;11.98;100.00;101877.38;5036080;28;20043;-54
2022/10/27 02:58:22;;;;;;;18.13;12.82;;;;;;;11.85;100.00;101862.72;5032593;28;20065;-53
2022/10/27 03:00:53;;;;;;;17.67;11.00;;;;;;;11.69;100.00;101837.53;5032702;28;20046;-54
2022/10/27 03:03:18;;;;;;;17.65;11.20;;;;;;;11.87;100.00;101879.41;5032509;28;20426;-57
2022/10/27 03:05:44;;;;;;;17.58;12.07;;;;;;;11.82;100.00;101878.63;5031690;28;20063;-57
2022/10/27 03:08:09;;;;;;;17.85;11.23;;;;;;;11.82;100.00;101886.53;5035789;28;20097;-55
2022/10/27 03:10:34;;;;;;;16.92;12.63;;;;;;;11.76;100.00;101878.75;5032446;28;20044;-57
2022/10/27 03:13:00;;;;;;;18.27;11.48;;;;;;;11.76;100.00;101879.59;5032632;28;20029;-52
2022/10/27 03:15:25;;;;;;;15.50;12.45;;;;;;;11.73;100.00;101874.38;5032388;28;20033;-53
2022/10/27 03:17:50;;;;;;;17.85;11.30;;;;;;;11.71;100.00;101876.19;5032547;28;20037;-51
2022/10/27 03:20:16;;;;;;;16.58;12.32;;;;;;;11.37;100.00;101819.75;5032237;28;20103;-54
2022/10/27 03:22:41;;;;;;;16.23;11.13;;;;;;;11.67;100.00;101873.63;5032276;28;20033;-57
2022/10/27 03:25:09;;;;;;;18.23;11.40;;;;;;;11.56;100.00;101859.78;5032421;28;20060;-51
2022/10/27 03:27:34;;;;;;;18.23;12.52;;;;;;;11.66;100.00;101879.78;5031082;28;20033;-56
2022/10/27 03:29:59;;;;;;;18.98;12.65;;;;;;;11.66;100.00;101875.41;5047703;28;20117;-54
2022/10/27 03:32:25;;;;;;;17.48;11.93;;;;;;;11.70;100.00;101869.16;5030785;28;20033;-56
2022/10/27 03:34:50;;;;;;;20.40;12.38;;;;;;;11.68;100.00;101878.88;5032195;28;20034;-52
2022/10/27 03:37:16;;;;;;;18.98;12.85;;;;;;;11.29;100.00;101813.75;5030630;28;20053;-55
2022/10/27 03:39:42;;;;;;;20.30;11.93;;;;;;;11.63;100.00;101885.13;5032124;28;20464;-54
2022/10/27 03:42:07;;;;;;;18.88;12.15;;;;;;;11.60;100.00;101883.44;5031888;28;20069;-52
2022/10/27 03:44:33;;;;;;;19.25;11.10;;;;;;;11.59;100.00;101892.22;5032080;28;20041;-55
2022/10/27 03:46:58;;;;;;;15.55;11.55;;;;;;;11.59;100.00;101897.50;5032294;28;20077;-55
2022/10/27 03:49:23;;;;;;;17.67;11.32;;;;;;;11.59;100.00;101900.13;5031884;28;20029;-53
2022/10/27 03:51:49;;;;;;;18.80;11.07;;;;;;;11.23;100.00;101837.59;5033239;28;20068;-54
2022/10/27 03:54:14;;;;;;;17.20;11.55;;;;;;;11.56;100.00;101900.19;5034790;28;20038;-58
2022/10/27 03:56:39;;;;;;;18.98;12.05;;;;;;;11.43;100.00;101880.25;5036194;28;20520;-56
2022/10/27 03:59:05;;;;;;;20.58;11.95;;;;;;;11.49;100.00;101898.59;5051233;28;20060;-59
2022/10/27 04:01:32;;;;;;;15.80;11.85;;;;;;;11.04;100.00;101829.16;5035628;28;20508;-54
2022/10/27 04:03:58;;;;;;;19.02;12.45;;;;;;;11.16;100.00;101855.28;5034287;28;20033;-54
2022/10/27 04:06:23;;;;;;;17.17;12.43;;;;;;;11.36;100.00;101898.84;5035511;28;20049;-56
2022/10/27 04:17:01;;;;;;;17.63;11.23;;;;;;;10.86;100.00;101852.34;5032904;28;20038;-57
2022/10/27 04:19:26;;;;;;;16.65;11.25;;;;;;;11.17;100.00;101896.56;5033559;28;20124;-56
2022/10/27 04:21:52;;;;;;;14.60;11.65;;;;;;;11.19;100.00;101897.41;5035133;28;20033;-51
2022/10/27 04:24:17;;;;;;;15.57;11.38;;;;;;;11.19;100.00;101894.75;5034691;28;20423;-57
2022/10/27 04:26:42;;;;;;;18.30;12.05;;;;;;;11.31;100.00;101912.13;5035305;28;20128;-56
2022/10/27 04:29:07;;;;;;;16.15;11.30;;;;;;;11.19;100.00;101881.59;5035470;28;20220;-56
2022/10/27 04:31:33;;;;;;;15.55;11.27;;;;;;;11.25;100.00;101885.88;5035508;28;20038;-56
2022/10/27 04:33:58;;;;;;;19.92;12.23;;;;;;;11.45;100.00;101903.94;5035309;28;20041;-57
2022/10/27 04:36:24;;;;;;;16.90;11.38;;;;;;;11.29;100.00;101869.13;5035086;28;20049;-57
2022/10/27 04:38:50;;;;;;;16.50;10.95;;;;;;;11.12;100.00;101834.31;5035251;28;20041;-54
2022/10/27 04:41:16;;;;;;;14.25;10.68;;;;;;;11.50;100.00;101900.31;5034078;28;20541;-54
2022/10/27 04:43:41;;;;;;;18.08;10.27;;;;;;;11.60;100.00;101911.56;5035163;28;20479;-56
2022/10/27 04:46:06;;;;;;;15.75;10.18;;;;;;;11.63;100.00;101901.81;5034990;28;20401;-55
2022/10/27 04:48:31;;;;;;;15.48;9.95;;;;;;;11.65;100.00;101904.41;5034893;28;20432;-52
2022/10/27 04:50:57;;;;;;;14.75;9.20;;;;;;;11.68;100.00;101897.31;5034820;28;20112;-57
2022/10/27 04:53:22;;;;;;;15.73;9.52;;;;;;;11.63;100.00;101887.78;5035189;28;20061;-55
2022/10/27 04:55:49;;;;;;;13.75;9.13;;;;;;;11.64;100.00;101886.88;5035033;28;20041;-54
2022/10/27 04:58:14;;;;;;;22.45;8.88;;;;;;;11.70;100.00;101907.91;5034876;28;20037;-57
2022/10/27 05:00:41;;;;;;;13.13;8.82;;;;;;;11.32;100.00;101828.66;5033759;28;20051;-51
2022/10/27 05:03:07;;;;;;;10.77;8.35;;;;;;;11.60;100.00;101891.34;5033941;28;20503;-53
2022/10/27 05:05:32;;;;;;;18.30;8.38;;;;;;;11.70;100.00;101894.72;5033366;28;20108;-52
2022/10/27 05:08:00;;;;;;;16.33;9.20;;;;;;;11.68;100.00;101886.78;5034799;28;20041;-52
2022/10/27 05:10:26;;;;;;;13.60;8.38;;;;;;;11.63;100.00;101877.22;5034923;28;20032;-57
2022/10/27 05:12:51;;;;;;;11.45;8.43;;;;;;;11.67;100.00;101887.69;5051693;28;20079;-55
2022/10/27 05:15:17;;;;;;;16.30;8.52;;;;;;;11.30;100.00;101820.75;5054915;28;20068;-53
2022/10/27 05:17:42;;;;;;;18.85;8.80;;;;;;;11.40;100.00;101832.88;5040873;28;20335;-56
2022/10/27 05:20:08;;;;;;;12.23;8.63;;;;;;;11.68;100.00;101886.78;5053842;28;20033;-55
2022/10/27 05:22:33;;;;;;;13.02;7.70;;;;;;;11.69;100.00;101883.28;5053422;28;20048;-50
2022/10/27 05:24:59;;;;;;;17.52;8.68;;;;;;;11.72;100.00;101877.06;5052692;28;20045;-55
2022/10/27 05:27:24;;;;;;;16.55;9.05;;;;;;;11.74;100.00;101883.16;5054211;28;20511;-56
2022/10/27 05:29:49;;;;;;;13.05;8.63;;;;;;;11.76;100.00;101869.03;5052850;28;20116;-52
2022/10/27 05:32:14;;;;;;;12.05;8.07;;;;;;;11.80;100.00;101883.03;5053509;28;20395;-54
2022/10/27 05:34:40;;;;;;;13.13;8.95;;;;;;;11.82;100.00;101886.53;5053884;28;20075;-54
2022/10/27 05:37:06;;;;;;;16.80;9.50;;;;;;;11.66;100.00;101853.44;5053629;28;20051;-54
2022/10/27 05:39:31;;;;;;;11.75;8.40;;;;;;;11.67;100.00;101844.63;5054407;28;20083;-54
2022/10/27 05:41:57;;;;;;;14.45;8.15;;;;;;;11.38;100.00;101808.31;5053916;28;20051;-54
2022/10/27 05:44:22;;;;;;;16.75;8.45;;;;;;;11.77;100.00;101857.59;5053673;28;20029;-54
2022/10/27 05:46:47;;;;;;;16.60;8.13;;;;;;;11.49;100.00;101819.50;5053069;28;20064;-53
2022/10/27 05:49:13;;;;;;;12.95;8.32;;;;;;;11.77;100.00;101877.84;5048270;28;20087;-56
2022/10/27 05:51:38;;;;;;;13.60;7.80;;;;;;;11.73;100.00;101863.84;5053402;28;20033;-56
2022/10/27 05:54:03;;;;;;;13.32;7.93;;;;;;;11.74;100.00;101862.94;5052413;28;20033;-57
2022/10/27 05:56:29;;;;;;;12.68;8.48;;;;;;;11.74;100.00;101857.66;5053754;28;20033;-58
2022/10/27 05:58:54;;;;;;;15.98;7.82;;;;;;;11.52;100.00;101810.66;5053683;28;20036;-55
2022/10/27 06:01:19;;;;;;;12.52;7.38;;;;;;;11.59;100.00;101810.47;5053623;28;20033;-54
2022/10/27 06:03:45;;;;;;;13.02;7.70;;;;;;;11.81;100.00;101845.22;5053471;28;20037;-54
2022/10/27 06:06:10;;;;;;;10.05;7.20;;;;;;;11.81;100.00;101846.09;5052022;28;20025;-54
2022/10/27 06:08:36;;;;;;;9.68;7.03;;;;;;;11.81;100.00;101838.19;5053283;28;20033;-53
2022/10/27 06:11:01;;;;;;;9.38;6.65;;;;;;;11.83;100.00;101851.31;5053540;28;20040;-55
2022/10/27 06:13:27;;;;;;;10.88;7.35;;;;;;;11.61;100.00;101811.34;5052083;28;20036;-51
2022/10/27 06:15:52;;;;;;;9.93;6.50;;;;;;;11.82;100.00;101846.97;5050923;28;20424;-52
2022/10/27 06:18:18;;;;;;;10.30;6.63;;;;;;;11.50;100.00;101783.47;5053297;28;20036;-56
2022/10/27 06:20:43;;;;;;;12.30;6.60;;;;;;;11.82;100.00;101839.06;5053440;28;20483;-54
2022/10/27 06:23:08;;;;;;;13.50;6.80;;;;;;;11.78;100.00;101838.25;5053539;28;20041;-57
2022/10/27 06:25:34;;;;;;;11.93;6.85;;;;;;;11.75;100.00;101851.50;5053337;28;20047;-57
2022/10/27 06:28:00;;;;;;;11.32;6.47;;;;;;;11.69;100.00;101827.00;5052978;28;20037;-56
2022/10/27 06:30:25;;;;;;;8.65;6.13;;;;;;;11.75;100.00;101829.53;5052936;28;20041;-56
2022/10/27 06:32:50;;;;;;;9.52;5.65;;;;;;;11.66;100.00;101819.13;5052858;28;20040;-56
2022/10/27 06:35:17;;;;;;;12.30;5.90;;;;;;;11.74;100.00;101833.06;5052784;28;20037;-56
2022/10/27 06:37:43;;;;;;;9.30;5.38;;;;;;;11.73;100.00;101826.91;5051433;28;20056;-56
2022/10/27 06:40:10;;;;;;;11.65;5.45;;;;;;;11.74;100.00;101833.06;5053019;28;20033;-57
2022/10/27 06:42:36;;;;;;;11.30;5.43;;;;;;;11.75;100.00;101829.53;5051808;28;20029;-55
2022/10/27 06:45:05;;;;;;;7.90;5.35;;;;;;;11.78;100.00;101818.91;5053204;28;20025;-57
2022/10/27 06:47:31;;;;;;;12.13;5.95;;;;;;;11.76;100.00;101815.44;5052605;28;20118;-54
2022/10/27 06:49:56;;;;;;;7.28;5.15;;;;;;;11.79;100.00;101818.88;5052709;28;20032;-57
2022/10/27 06:52:22;;;;;;;12.75;5.75;;;;;;;11.77;100.00;101818.03;5067856;28;20032;-55
2022/10/27 06:54:47;;;;;;;9.23;5.72;;;;;;;11.76;100.00;101820.72;5052716;28;20033;-54
2022/10/27 06:57:13;;;;;;;10.20;5.20;;;;;;;11.48;100.00;101772.94;5052565;28;20029;-59
2022/10/27 06:59:38;;;;;;;9.23;5.28;;;;;;;11.78;100.00;101840.00;5052826;28;20063;-54
2022/10/27 07:02:04;;;;;;;11.27;5.75;;;;;;;11.80;100.00;101831.16;5052628;28;20033;-57
2022/10/27 07:04:29;;;;;;;9.98;5.20;;;;;;;11.44;100.00;101768.63;5051368;28;20033;-56
2022/10/27 07:06:54;;;;;;;11.75;5.80;;;;;;;11.43;100.00;101752.84;5052312;28;20666;-54
2022/10/27 07:09:20;;;;;;;9.05;6.22;;;;;;;11.87;100.00;101826.63;5067800;28;20037;-57
2022/10/27 07:11:45;;;;;;;10.15;5.90;;;;;;;11.84;100.00;101810.88;5052323;28;20385;-53
2022/10/27 07:14:10;;;;;;;12.65;5.95;;;;;;;11.94;100.00;101814.19;5052180;28;20071;-54
2022/10/27 07:16:36;;;;;;;11.23;6.30;;;;;;;11.94;100.00;101809.75;5052291;28;20040;-56
2022/10/27 07:19:01;;;;;;;14.63;7.32;;;;;;;11.75;100.00;101779.41;5052492;28;20033;-55
2022/10/27 07:21:27;;;;;;;18.02;7.43;;;;;;;12.08;100.00;101822.66;5052240;28;20029;-56
2022/10/27 07:23:53;;;;;;;13.18;6.75;;;;;;;12.02;100.00;101822.78;5050875;28;20040;-55
2022/10/27 07:26:18;;;;;;;11.55;7.60;;;;;;;12.16;100.00;101831.25;5051674;28;20573;-57
2022/10/27 07:28:44;;;;;;;12.55;6.85;;;;;;;12.17;100.00;101828.56;5052241;28;20037;-57
2022/10/27 07:31:09;;;;;;;13.82;7.10;;;;;;;11.90;100.00;101775.56;5052208;28;20499;-53
2022/10/27 07:33:34;;;;;;;13.85;6.85;;;;;;;12.24;100.00;101832.81;5051953;28;20038;-58
2022/10/27 07:36:00;;;;;;;10.93;7.22;;;;;;;12.21;100.00;101822.31;5051761;28;20064;-56
2022/10/27 07:38:25;;;;;;;12.88;7.13;;;;;;;12.34;100.00;101820.25;5052244;28;20029;-56
2022/10/27 07:40:51;;;;;;;14.50;7.78;;;;;;;12.42;100.00;101826.22;5052104;28;20064;-56
2022/10/27 07:43:16;;;;;;;12.38;6.05;;;;;;;12.50;100.00;101824.25;5052197;28;20040;-56
2022/10/27 07:45:42;;;;;;;10.13;6.55;;;;;;;12.61;100.00;101826.66;5052073;28;20491;-51
2022/10/27 07:48:13;;;;;;;10.57;6.15;;;;;;;12.69;100.00;101816.75;5050729;28;20037;-54
2022/10/27 07:50:39;;;;;;;8.90;5.72;;;;;;;12.80;100.00;101826.13;5034033;28;20545;-53
2022/10/27 07:53:04;;;;;;;11.80;6.20;;;;;;;12.48;100.00;101754.78;5052146;28;20061;-54
2022/10/27 07:55:31;;;;;;;10.95;5.10;;;;;;;13.02;100.00;101825.56;5051884;28;20029;-52
2022/10/27 07:58:10;;;;;;;8.15;5.10;;;;;;;13.08;100.00;101828.06;5051869;28;20036;-50
2022/10/27 08:00:38;;;;;;;7.03;4.15;;;;;;;13.08;100.00;101794.56;5051721;28;20025;-54
2022/10/27 08:03:05;;;;;;;6.80;4.55;;;;;;;12.95;100.00;101751.75;5050805;28;20441;-53
2022/10/27 08:05:34;;;;;;;4.28;3.88;;;;;;;13.30;100.00;101801.00;5052120;28;20480;-53
2022/10/27 08:08:02;;;;;;;5.93;4.25;;;;;;;13.24;100.00;101763.28;5051826;28;20392;-54
2022/10/27 08:10:28;;;;;;;7.38;4.10;;;;;;;13.58;100.00;101798.41;5052085;28;20033;-55
2022/10/27 08:12:54;;;;;;;7.28;3.78;;;;;;;13.70;100.00;101794.53;5050375;28;20044;-58
2022/10/27 08:15:19;;;;;;;6.97;3.97;;;;;;;13.76;100.00;101795.22;5050238;28;20036;-52
2022/10/27 08:17:50;;;;;;;6.07;3.53;;;;;;;13.83;100.00;101804.72;5050695;28;20025;-56
2022/10/27 08:20:15;;;;;;;8.52;3.30;;;;;;;13.97;100.00;101802.50;5050635;28;20086;-55
2022/10/27 08:22:40;;;;;;;7.53;3.25;;;;;;;14.09;100.00;101794.19;5051669;28;20120;-55
2022/10/27 08:25:06;;;;;;;3.78;2.72;;;;;;;14.22;100.00;101794.66;5051683;28;20052;-57
2022/10/27 08:27:32;;;;;;;3.72;2.42;;;;;;;14.04;100.00;101743.16;5051623;28;20124;-53
2022/10/27 08:29:57;;;;;;;5.82;2.70;;;;;;;14.18;100.00;101747.16;5050350;28;20032;-55
2022/10/27 08:32:23;;;;;;;8.90;3.05;;;;;;;14.60;100.00;101782.81;5050797;28;20026;-55
2022/10/27 08:34:48;;;;;;;4.15;2.58;;;;;;;14.68;100.00;101780.78;5049900;28;20485;-55
2022/10/27 08:37:13;;;;;;;6.15;2.88;;;;;;;14.79;100.00;101772.47;5049165;28;20057;-56
2022/10/27 08:39:39;;;;;;;3.75;2.40;;;;;;;14.93;100.00;101786.09;5052578;28;20698;-51
2022/10/27 08:42:29;;;;;;;3.20;2.00;;;;;;;15.02;100.00;101783.97;5053780;28;20091;-54
2022/10/27 08:45:01;;;;;;;4.18;2.20;;;;;;;14.87;100.00;101731.50;5055021;28;20059;-57
2022/10/27 08:47:27;;;;;;;3.80;1.85;;;;;;;15.27;100.00;101768.03;5054780;28;20115;-52
2022/10/27 08:50:02;;;;;;;7.75;1.95;;;;;;;15.39;100.00;101772.00;5037238;28;20124;-55
2022/10/27 08:52:53;;;;;;;3.35;1.65;;;;;;;15.50;100.00;101785.81;5055068;28;20041;-51
2022/10/27 08:55:20;;;;;;;;;;;;;;;15.67;100.00;101786.03;5038931;28;20404;-55
2022/10/27 08:57:57;;;;;;;5.32;2.10;;;;;;;15.80;100.00;101778.44;5054833;28;20007;-51
2022/10/27 09:00:22;;;;;;;3.25;1.58;;;;;;;15.90;100.00;101780.69;5055015;28;20357;-56
2022/10/27 09:03:03;;;;;;;3.47;1.35;;;;;;;16.03;100.00;101787.22;5054748;28;20059;-56
2022/10/27 09:05:45;;;;;;;4.43;1.60;;;;;;;16.17;100.00;101798.16;5054906;28;20098;-54
2022/10/27 09:08:13;;;;;;;2.03;1.20;;;;;;;16.29;100.00;101802.09;5053538;28;20391;-56
2022/10/27 09:11:17;;;;;;;4.18;1.55;;;;;;;16.45;100.00;101797.03;5054657;28;20071;-56
2022/10/27 09:14:30;;;;;;;1.63;1.20;;;;;;;16.64;100.00;101795.34;5054436;28;20052;-56
2022/10/27 09:17:00;;;;;;;5.57;1.38;;;;;;;16.76;100.00;101795.69;5017375;28;20100;-57
2022/10/27 09:19:35;;;;;;;4.63;1.50;;;;;;;16.78;100.00;101793.84;5054822;28;20115;-56
2022/10/27 09:22:02;;;;;;;5.45;1.95;;;;;;;16.74;100.00;101776.31;5053166;28;20438;-55
2022/10/27 09:24:29;;;;;;;4.40;1.52;;;;;;;16.85;100.00;101813.94;5053399;28;20075;-52
2022/10/27 09:26:56;;;;;;;4.95;1.67;;;;;;;16.58;100.00;101734.50;5054163;28;20483;-51
2022/10/27 09:29:23;;;;;;;4.63;1.60;;;;;;;17.09;100.00;101811.13;5054354;28;20036;-55
2022/10/27 09:31:54;;;;;;;5.20;1.52;;;;;;;17.27;100.00;101802.34;5054316;28;20468;-51
2022/10/27 09:34:29;;;;;;;2.63;1.88;;;;;;;17.42;100.00;101797.16;5036446;28;20396;-52
2022/10/27 09:36:55;;;;;;;2.47;1.38;;;;;;;17.47;100.00;101798.78;5052927;28;20056;-51
2022/10/27 09:39:21;;;;;;;4.53;1.00;;;;;;;17.52;100.00;101786.09;5054418;28;20045;-57
2022/10/27 09:41:47;;;;;;;2.90;1.13;;;;;;;17.23;100.00;101751.06;5052861;28;20503;-48
2022/10/27 09:44:20;;;;;;;3.33;1.15;;;;;;;17.47;100.00;101764.16;5053779;28;20053;-56
2022/10/27 09:46:55;;;;;;;2.72;1.17;;;;;;;17.29;100.00;101717.97;5053845;28;20076;-51
2022/10/27 09:49:26;;;;;;;3.03;1.00;;;;;;;17.66;100.00;101771.25;5052305;28;20052;-51
2022/10/27 09:51:52;;;;;;;;;;;;;;;17.72;100.00;101775.41;5054543;28;20377;-51
2022/10/27 09:54:28;;;;;;;1.83;1.05;;;;;;;17.82;100.00;101771.41;5053900;28;20018;-54
2022/10/27 09:56:54;;;;;;;4.38;1.23;;;;;;;17.78;100.00;101754.69;5053661;28;20029;-52
2022/10/27 09:59:21;;;;;;;3.03;1.20;;;;;;;17.91;100.00;101776.28;5052467;28;20029;-51
2022/10/27 10:01:48;;;;;;;3.33;1.17;;;;;;;18.01;100.00;101761.56;5052528;28;20128;-51
2022/10/27 10:04:49;;;;;;;1.50;0.90;;;;;;;18.06;100.00;101764.03;5052488;28;20044;-48
2022/10/27 10:07:29;;;;;;;1.55;1.00;;;;;;;18.14;100.00;101770.72;4994984;28;20061;-57
2022/10/27 10:10:21;;;;;;;3.57;1.27;;;;;;;17.92;100.00;101722.09;5048878;28;20047;-54
2022/10/27 10:13:06;;;;;;;5.32;1.25;;;;;;;17.93;100.00;101719.34;5053547;28;20033;-50
2022/10/27 10:15:42;;;;;;;7.28;1.40;;;;;;;18.28;100.00;101760.22;5053149;28;20480;-48
2022/10/27 10:18:25;;;;;;;3.25;1.63;;;;;;;18.28;100.00;101768.22;5051871;28;20468;-55
2022/10/27 10:21:09;;;;;;;4.20;1.20;;;;;;;17.98;100.00;101727.97;5051797;28;20029;-51
2022/10/27 10:23:36;;;;;;;4.25;1.27;;;;;;;17.96;100.00;101715.66;5035299;28;20490;-49
2022/10/27 10:26:04;;;;;;;3.30;1.25;;;;;;;17.94;100.00;101720.22;5051961;28;20040;-55
2022/10/27 10:28:38;;;;;;;3.45;1.20;;;;;;;18.20;100.00;101754.44;5053201;28;20032;-52
2022/10/27 10:31:06;;;;;;;3.72;1.35;;;;;;;17.82;100.00;101707.47;5052000;28;20084;-49
2022/10/27 10:33:35;;;;;;;3.45;1.58;;;;;;;18.08;100.00;101749.69;5053115;28;20029;-52
2022/10/27 10:36:35;;;;;;;3.78;1.45;;;;;;;18.16;100.00;101758.16;5051847;28;20075;-54
2022/10/27 10:39:00;;;;;;;5.75;1.40;;;;;;;18.18;100.00;101743.00;5030684;28;20058;-52
2022/10/27 10:41:27;;;;;;;6.82;1.80;;;;;;;18.27;100.00;101739.84;5047955;28;20047;-53
2022/10/27 10:44:15;;;;;;;2.83;1.42;;;;;;;18.43;100.00;101739.94;5031800;28;20030;-53
2022/10/27 10:47:00;;;;;;;5.40;1.35;;;;;;;18.57;100.00;101747.25;5032681;28;20615;-51
2022/10/27 10:49:29;;;;;;;3.25;1.02;;;;;;;18.68;100.00;101756.44;5032217;28;20068;-49
2022/10/27 10:51:56;;;;;;;4.00;1.30;;;;;;;18.84;100.00;101740.50;5032940;28;20095;-50
2022/10/27 10:54:26;;;;;;;5.05;1.55;;;;;;;18.99;100.00;101747.72;5031571;28;20116;-53
2022/10/27 10:56:52;;;;;;;2.70;0.95;;;;;;;18.93;100.00;101713.34;5032685;28;20045;-52
2022/10/27 10:59:21;;;;;;;3.88;1.90;;;;;;;19.05;100.00;101732.25;5032144;28;20044;-56
2022/10/27 11:01:58;;;;;;;3.60;1.83;;;;;;;18.99;100.00;101761.06;5031901;28;20033;-57
2022/10/27 11:04:29;;;;;;;2.47;1.17;;;;;;;18.64;100.00;101704.22;5031376;28;20047;-54
2022/10/27 11:07:06;;;;;;;3.78;1.50;;;;;;;18.67;100.00;101730.72;5031305;28;20036;-51
2022/10/27 11:09:40;;;;;;;3.88;1.98;;;;;;;18.30;100.00;101688.22;5031344;28;20045;-51
2022/10/27 11:12:18;;;;;;;3.00;1.63;;;;;;;18.17;100.00;101693.28;5032214;28;20025;-48
2022/10/27 11:14:45;;;;;;;3.30;1.63;;;;;;;18.09;100.00;101700.81;5014812;28;20025;-52
2022/10/27 11:17:10;;;;;;;5.07;1.23;;;;;;;17.96;100.00;101673.03;5032450;28;20033;-54
2022/10/27 11:19:36;;;;;;;2.13;1.10;;;;;;;17.91;100.00;101677.75;5031192;28;20030;-51
2022/10/27 11:22:08;;;;;;;4.43;2.13;;;;;;;18.15;100.00;101713.81;5014608;28;20033;-52
2022/10/27 11:24:39;;;;;;;4.88;1.38;;;;;;;18.05;100.00;101687.69;5031145;28;20033;-49
2022/10/27 11:27:10;;;;;;;4.13;1.73;;;;;;;17.95;100.00;101648.19;5032183;28;20560;-48
2022/10/27 11:29:51;;;;;;;5.07;1.70;;;;;;;18.24;100.00;101713.34;5031030;28;20120;-54